Time;durP1;ratioP1;P1;durP2;ratioP2;P2;SDS_P1;SDS_P2;PMS_P1;PMS_P2;Temp;Humidity;BMP_temperature;BMP_pressure;BME280_temperature;BME280_humidity;BME280_pressure;Samples;Min_cycle;Max_cycle;Signal;HPM_P1;HPM_P2
2021/03/13 00:02:19;;;;;;;26.90;4.20;;;;;;;;;;5047457;28;20181;-68
2021/03/13 00:04:44;;;;;;;18.87;6.83;;;;;;;;;;5051510;28;20185;-67
2021/03/13 00:07:09;;;;;;;13.37;4.37;;;;;;;;;;5052170;28;20562;-68
2021/03/13 00:09:35;;;;;;;16.63;4.23;;;;;;;;;;5052594;28;20575;-67
2021/03/13 00:12:00;;;;;;;15.80;3.83;;;;;;;;;;5055432;28;20182;-68
2021/03/13 00:14:25;;;;;;;16.67;3.50;;;;;;;;;;5042111;28;20182;-68
2021/03/13 00:16:50;;;;;;;17.80;4.77;;;;;;;;;;5051236;28;20185;-68
2021/03/13 00:19:15;;;;;;;11.37;3.87;;;;;;;;;;5051534;28;20726;-68
2021/03/13 00:21:40;;;;;;;11.47;3.20;;;;;;;;;;5051819;28;20191;-68
2021/03/13 00:24:06;;;;;;;13.43;3.60;;;;;;;;;;5057202;28;20212;-68
2021/03/13 00:26:31;;;;;;;21.03;4.10;;;;;;;;;;5050836;28;20571;-68
2021/03/13 00:28:56;;;;;;;20.27;4.80;;;;;;;;;;5053871;28;20208;-68
2021/03/13 00:31:21;;;;;;;13.50;3.63;;;;;;;;;;5049546;28;20216;-68
2021/03/13 00:33:46;;;;;;;14.67;3.80;;;;;;;;;;5052447;28;20268;-68
2021/03/13 00:36:12;;;;;;;14.53;3.43;;;;;;;;;;5051455;28;20544;-68
2021/03/13 00:38:37;;;;;;;11.40;3.40;;;;;;;;;;5053417;28;20185;-68
2021/03/13 00:41:02;;;;;;;10.53;3.50;;;;;;;;;;5050997;28;20269;-68
2021/03/13 00:43:27;;;;;;;15.83;4.33;;;;;;;;;;5052347;28;20181;-67
2021/03/13 00:45:52;;;;;;;13.50;2.90;;;;;;;;;;5048076;28;20703;-68
2021/03/13 00:48:18;;;;;;;14.23;3.60;;;;;;;;;;5045781;28;20239;-66
2021/03/13 00:50:44;;;;;;;7.47;2.27;;;;;;;;;;5047577;28;20206;-68
2021/03/13 00:53:09;;;;;;;13.30;3.40;;;;;;;;;;5049227;28;20748;-68
2021/03/13 00:55:35;;;;;;;8.87;2.67;;;;;;;;;;5050122;28;20186;-67
2021/03/13 00:58:00;;;;;;;8.63;3.27;;;;;;;;;;5049487;28;20171;-68
2021/03/13 01:00:26;;;;;;;8.77;2.50;;;;;;;;;;5047824;28;20201;-68
2021/03/13 01:02:51;;;;;;;7.97;2.23;;;;;;;;;;5048432;28;20218;-68
2021/03/13 01:05:17;;;;;;;12.90;3.03;;;;;;;;;;5050368;28;20683;-68
2021/03/13 01:07:43;;;;;;;11.13;3.00;;;;;;;;;;5049137;28;20191;-68
2021/03/13 01:10:10;;;;;;;8.43;2.63;;;;;;;;;;5050669;28;20202;-68
2021/03/13 01:12:36;;;;;;;13.43;3.23;;;;;;;;;;5051575;28;20189;-68
2021/03/13 01:15:01;;;;;;;13.73;5.27;;;;;;;;;;5048913;28;20181;-68
2021/03/13 01:17:26;;;;;;;12.00;3.13;;;;;;;;;;5048784;28;20182;-67
2021/03/13 01:19:51;;;;;;;12.17;4.37;;;;;;;;;;5056806;28;20290;-68
2021/03/13 01:22:16;;;;;;;8.87;3.60;;;;;;;;;;5051867;28;20178;-68
2021/03/13 01:24:42;;;;;;;6.83;2.80;;;;;;;;;;5047078;28;20186;-68
2021/03/13 01:27:08;;;;;;;9.33;3.50;;;;;;;;;;5044441;28;20562;-67
2021/03/13 01:29:33;;;;;;;7.03;2.80;;;;;;;;;;5048883;28;20220;-68
2021/03/13 01:32:03;;;;;;;8.07;2.80;;;;;;;;;;5047690;28;20217;-67
2021/03/13 01:34:29;;;;;;;6.27;3.00;;;;;;;;;;5039947;28;20185;-67
2021/03/13 01:36:54;;;;;;;7.00;2.87;;;;;;;;;;5047946;28;20178;-68
2021/03/13 01:39:19;;;;;;;7.20;2.77;;;;;;;;;;5049736;28;20209;-67
2021/03/13 01:41:44;;;;;;;3.80;2.33;;;;;;;;;;5047102;28;20219;-68
2021/03/13 01:44:10;;;;;;;5.37;2.97;;;;;;;;;;5050877;28;20553;-68
2021/03/13 01:46:35;;;;;;;6.43;2.30;;;;;;;;;;5050852;28;20186;-68
2021/03/13 01:49:00;;;;;;;8.27;3.17;;;;;;;;;;5052699;28;20220;-68
2021/03/13 01:51:25;;;;;;;4.03;2.43;;;;;;;;;;5046859;28;20308;-67
2021/03/13 01:53:50;;;;;;;6.30;2.80;;;;;;;;;;5051337;28;20181;-67
2021/03/13 01:56:16;;;;;;;8.43;3.30;;;;;;;;;;5047001;28;20205;-68
2021/03/13 01:58:41;;;;;;;7.87;3.40;;;;;;;;;;5051227;28;20193;-67
2021/03/13 02:01:06;;;;;;;5.43;3.27;;;;;;;;;;5047156;28;20205;-68
2021/03/13 02:03:32;;;;;;;8.20;3.70;;;;;;;;;;5046912;28;20231;-66
2021/03/13 02:05:57;;;;;;;6.40;3.13;;;;;;;;;;5050845;28;20173;-68
2021/03/13 02:08:35;;;;;;;6.33;3.00;;;;;;;;;;5049171;28;20304;-67
2021/03/13 02:11:19;;;;;;;11.20;4.20;;;;;;;;;;5034807;28;20197;-67
2021/03/13 02:13:46;;;;;;;8.20;3.63;;;;;;;;;;5042439;28;20191;-67
2021/03/13 02:16:30;;;;;;;9.83;4.17;;;;;;;;;;5046399;28;20527;-67
2021/03/13 02:19:05;;;;;;;9.80;4.40;;;;;;;;;;5050189;28;20263;-68
2021/03/13 02:21:38;;;;;;;9.47;6.40;;;;;;;;;;5049760;28;20219;-68
2021/03/13 02:24:16;;;;;;;11.43;5.97;;;;;;;;;;5046285;28;20209;-68
2021/03/13 02:26:43;;;;;;;9.87;5.63;;;;;;;;;;5048656;28;20177;-68
2021/03/13 02:29:15;;;;;;;12.67;5.70;;;;;;;;;;5045805;28;20185;-68
2021/03/13 02:31:46;;;;;;;10.30;5.50;;;;;;;;;;5044275;28;20192;-67
2021/03/13 02:34:12;;;;;;;9.70;5.67;;;;;;;;;;5042460;28;20179;-67
2021/03/13 02:36:38;;;;;;;10.57;5.03;;;;;;;;;;5049839;28;20340;-67
2021/03/13 02:39:06;;;;;;;11.07;5.57;;;;;;;;;;5051458;28;20201;-68
2021/03/13 02:41:34;;;;;;;8.13;5.83;;;;;;;;;;5044809;28;20232;-68
2021/03/13 02:44:01;;;;;;;12.27;5.07;;;;;;;;;;5064330;28;20199;-68
2021/03/13 02:46:26;;;;;;;6.77;3.90;;;;;;;;;;5048868;28;20174;-68
2021/03/13 02:48:53;;;;;;;9.73;4.53;;;;;;;;;;5049634;28;20181;-68
2021/03/13 02:51:19;;;;;;;9.20;4.70;;;;;;;;;;5048066;28;20273;-67
2021/03/13 02:53:45;;;;;;;8.17;3.90;;;;;;;;;;5048363;28;20261;-67
2021/03/13 02:56:11;;;;;;;8.60;4.00;;;;;;;;;;5047465;28;20797;-68
2021/03/13 02:58:36;;;;;;;10.77;5.33;;;;;;;;;;5050014;28;20260;-68
2021/03/13 03:01:02;;;;;;;7.57;4.20;;;;;;;;;;5046941;28;20205;-67
2021/03/13 03:03:28;;;;;;;9.00;4.10;;;;;;;;;;5044813;28;20176;-67
2021/03/13 03:05:54;;;;;;;7.10;3.13;;;;;;;;;;5047488;28;20170;-68
2021/03/13 03:08:20;;;;;;;6.07;3.70;;;;;;;;;;5049616;28;20177;-67
2021/03/13 03:10:46;;;;;;;10.53;3.97;;;;;;;;;;5045996;28;20576;-67
2021/03/13 03:13:11;;;;;;;8.37;3.30;;;;;;;;;;5048884;28;20188;-68
2021/03/13 03:15:37;;;;;;;8.30;3.27;;;;;;;;;;5049535;28;20529;-67
2021/03/13 03:18:05;;;;;;;5.43;2.83;;;;;;;;;;5048575;28;20209;-66
2021/03/13 03:20:31;;;;;;;7.53;3.83;;;;;;;;;;5047579;28;20240;-68
2021/03/13 03:22:56;;;;;;;6.33;3.40;;;;;;;;;;5053658;28;20188;-67
2021/03/13 03:25:21;;;;;;;7.53;3.30;;;;;;;;;;5046303;28;20169;-67
2021/03/13 03:27:53;;;;;;;10.00;3.80;;;;;;;;;;5050038;28;20185;-67
2021/03/13 03:30:23;;;;;;;10.23;3.13;;;;;;;;;;5046507;28;20201;-67
2021/03/13 03:32:48;;;;;;;4.40;2.40;;;;;;;;;;5051224;28;20275;-67
2021/03/13 03:35:14;;;;;;;8.90;3.10;;;;;;;;;;5047766;28;20268;-67
2021/03/13 03:37:39;;;;;;;7.87;2.83;;;;;;;;;;5048704;28;20325;-67
2021/03/13 03:40:05;;;;;;;6.03;3.10;;;;;;;;;;5049083;28;20283;-67
2021/03/13 03:42:30;;;;;;;11.07;3.27;;;;;;;;;;5044767;28;20190;-67
2021/03/13 03:44:56;;;;;;;4.90;2.80;;;;;;;;;;5047026;28;20273;-67
2021/03/13 03:47:22;;;;;;;10.97;3.40;;;;;;;;;;5052811;28;20186;-67
2021/03/13 03:49:47;;;;;;;6.53;2.87;;;;;;;;;;5043440;28;20708;-67
2021/03/13 03:52:13;;;;;;;5.80;2.93;;;;;;;;;;5050925;28;20197;-67
2021/03/13 03:54:39;;;;;;;7.27;3.33;;;;;;;;;;5050710;28;20185;-67
2021/03/13 03:57:08;;;;;;;9.50;3.07;;;;;;;;;;5051423;28;20707;-67
2021/03/13 03:59:34;;;;;;;8.60;2.73;;;;;;;;;;5046463;28;20206;-66
2021/03/13 04:02:00;;;;;;;7.67;3.67;;;;;;;;;;5049687;28;20252;-66
2021/03/13 04:04:27;;;;;;;5.53;2.60;;;;;;;;;;5054072;28;20189;-66
2021/03/13 04:06:53;;;;;;;11.67;3.70;;;;;;;;;;5046287;28;20193;-67
2021/03/13 04:09:20;;;;;;;6.60;2.77;;;;;;;;;;5056684;28;20206;-68
2021/03/13 04:11:46;;;;;;;6.83;2.80;;;;;;;;;;5052528;28;20197;-68
2021/03/13 04:14:12;;;;;;;7.80;2.97;;;;;;;;;;5052743;28;20525;-67
2021/03/13 04:16:37;;;;;;;7.60;4.43;;;;;;;;;;5046943;28;20189;-67
2021/03/13 04:19:03;;;;;;;6.90;3.60;;;;;;;;;;5052791;28;20201;-67
2021/03/13 04:21:28;;;;;;;4.07;2.90;;;;;;;;;;5051303;28;20632;-67
2021/03/13 04:23:54;;;;;;;5.20;2.70;;;;;;;;;;5051997;28;20178;-67
2021/03/13 04:26:20;;;;;;;12.03;3.57;;;;;;;;;;5049731;28;20182;-68
2021/03/13 04:28:46;;;;;;;10.97;3.23;;;;;;;;;;5052321;28;20186;-67
2021/03/13 04:31:12;;;;;;;8.67;3.80;;;;;;;;;;5052622;28;20216;-67
2021/03/13 04:33:38;;;;;;;12.27;3.40;;;;;;;;;;5050664;28;20190;-68
2021/03/13 04:36:04;;;;;;;8.60;3.20;;;;;;;;;;5053406;28;20178;-68
2021/03/13 04:38:29;;;;;;;4.27;2.80;;;;;;;;;;5052252;28;20212;-67
2021/03/13 04:40:55;;;;;;;10.77;2.70;;;;;;;;;;5054019;28;20294;-67
2021/03/13 04:43:21;;;;;;;7.47;2.83;;;;;;;;;;5048111;28;20181;-68
2021/03/13 04:45:47;;;;;;;9.80;3.00;;;;;;;;;;5052341;28;20189;-67
2021/03/13 04:48:13;;;;;;;6.70;2.90;;;;;;;;;;5053426;28;20173;-67
2021/03/13 04:50:39;;;;;;;5.50;2.40;;;;;;;;;;5050882;28;20213;-67
2021/03/13 04:53:04;;;;;;;8.07;3.10;;;;;;;;;;5053173;28;20208;-67
2021/03/13 04:55:29;;;;;;;9.13;2.40;;;;;;;;;;5051550;28;20216;-66
2021/03/13 04:57:55;;;;;;;6.73;3.87;;;;;;;;;;5052007;28;20301;-68
2021/03/13 05:00:20;;;;;;;11.53;5.10;;;;;;;;;;5048572;28;20205;-68
2021/03/13 05:02:45;;;;;;;3.13;2.07;;;;;;;;;;5053400;28;20686;-67
2021/03/13 05:05:11;;;;;;;7.50;2.90;;;;;;;;;;5046365;28;20191;-66
2021/03/13 05:07:36;;;;;;;5.83;2.53;;;;;;;;;;5050313;28;20186;-67
2021/03/13 05:10:02;;;;;;;5.93;3.00;;;;;;;;;;5051258;28;20212;-66
2021/03/13 05:12:28;;;;;;;8.33;2.77;;;;;;;;;;5049069;28;20193;-68
2021/03/13 05:14:53;;;;;;;5.67;2.00;;;;;;;;;;5044588;28;20181;-67
2021/03/13 05:17:19;;;;;;;7.47;2.47;;;;;;;;;;5046337;28;20178;-68
2021/03/13 05:19:44;;;;;;;8.03;2.70;;;;;;;;;;5050130;28;20259;-67
2021/03/13 05:22:09;;;;;;;4.90;2.00;;;;;;;;;;5051564;28;20178;-66
2021/03/13 05:24:35;;;;;;;4.53;1.90;;;;;;;;;;5050572;28;20216;-68
2021/03/13 05:27:00;;;;;;;4.60;1.80;;;;;;;;;;5049769;28;20212;-66
2021/03/13 05:29:25;;;;;;;3.57;2.00;;;;;;;;;;5049942;28;20202;-68
2021/03/13 05:31:51;;;;;;;2.77;1.20;;;;;;;;;;5048842;28;20193;-67
2021/03/13 05:34:16;;;;;;;4.30;1.20;;;;;;;;;;5049315;28;20184;-68
2021/03/13 05:36:41;;;;;;;2.20;1.20;;;;;;;;;;5051792;28;20661;-68
2021/03/13 05:39:06;;;;;;;3.80;1.17;;;;;;;;;;5052754;28;20189;-67
2021/03/13 05:41:32;;;;;;;2.90;1.23;;;;;;;;;;5048602;28;20211;-68
2021/03/13 05:43:59;;;;;;;2.50;0.80;;;;;;;;;;5046847;28;20185;-67
2021/03/13 05:46:25;;;;;;;2.40;0.80;;;;;;;;;;5048151;28;20186;-68
2021/03/13 05:48:50;;;;;;;6.23;1.50;;;;;;;;;;5047580;28;20682;-67
2021/03/13 05:51:15;;;;;;;4.03;1.00;;;;;;;;;;5050466;28;20184;-67
2021/03/13 05:53:41;;;;;;;6.40;0.97;;;;;;;;;;5048190;28;20804;-67
2021/03/13 05:56:09;;;;;;;3.83;0.90;;;;;;;;;;5050649;28;20268;-67
2021/03/13 05:58:36;;;;;;;3.87;1.77;;;;;;;;;;5049615;28;20178;-68
2021/03/13 06:01:01;;;;;;;3.47;0.57;;;;;;;;;;5047797;28;20216;-68
2021/03/13 06:03:26;;;;;;;2.43;0.70;;;;;;;;;;5051152;28;20181;-67
2021/03/13 06:05:51;;;;;;;5.70;0.87;;;;;;;;;;5047451;28;20193;-67
2021/03/13 06:08:17;;;;;;;3.47;0.60;;;;;;;;;;5047965;28;20182;-67
2021/03/13 06:10:42;;;;;;;2.23;0.80;;;;;;;;;;5051143;28;20209;-68
2021/03/13 06:13:08;;;;;;;13.33;0.90;;;;;;;;;;5049093;28;20182;-67
2021/03/13 06:15:33;;;;;;;7.17;1.03;;;;;;;;;;5050359;28;20194;-66
2021/03/13 06:17:59;;;;;;;7.40;1.27;;;;;;;;;;5047682;28;20178;-67
2021/03/13 06:20:29;;;;;;;5.73;0.80;;;;;;;;;;5049389;28;20232;-68
2021/03/13 06:22:55;;;;;;;5.47;1.10;;;;;;;;;;5049568;28;20587;-68
2021/03/13 06:25:24;;;;;;;5.23;1.67;;;;;;;;;;5047801;28;20174;-67
2021/03/13 06:28:10;;;;;;;5.63;1.10;;;;;;;;;;5050985;28;20177;-67
2021/03/13 06:30:41;;;;;;;5.77;1.47;;;;;;;;;;5047107;28;20296;-68
2021/03/13 06:33:21;;;;;;;9.57;1.37;;;;;;;;;;5043452;28;20200;-65
2021/03/13 06:35:46;;;;;;;5.17;2.10;;;;;;;;;;5046479;28;20193;-66
2021/03/13 06:38:13;;;;;;;8.53;1.27;;;;;;;;;;5043420;28;20193;-66
2021/03/13 06:40:38;;;;;;;8.73;1.67;;;;;;;;;;5045872;28;20217;-68
2021/03/13 06:43:22;;;;;;;7.10;1.33;;;;;;;;;;5050112;28;20180;-66
2021/03/13 06:45:58;;;;;;;10.40;1.77;;;;;;;;;;5048573;28;20219;-66
2021/03/13 06:48:38;;;;;;;12.77;2.77;;;;;;;;;;5051181;28;20182;-66
2021/03/13 06:51:15;;;;;;;8.13;1.60;;;;;;;;;;5050169;28;20204;-66
2021/03/13 06:53:41;;;;;;;7.77;1.90;;;;;;;;;;5042986;28;20173;-67
2021/03/13 06:56:08;;;;;;;4.73;1.10;;;;;;;;;;5048346;28;20256;-68
2021/03/13 06:58:33;;;;;;;9.07;1.83;;;;;;;;;;5047396;28;20188;-67
2021/03/13 07:01:02;;;;;;;11.03;2.00;;;;;;;;;;5048330;28;20217;-66
2021/03/13 07:03:27;;;;;;;6.03;1.87;;;;;;;;;;5047448;28;20178;-66
2021/03/13 07:05:53;;;;;;;11.00;2.13;;;;;;;;;;5054594;28;20261;-66
2021/03/13 07:08:31;;;;;;;7.50;2.03;;;;;;;;;;5047236;28;20219;-67
2021/03/13 07:11:02;;;;;;;7.07;2.00;;;;;;;;;;5049910;28;20288;-67
2021/03/13 07:13:34;;;;;;;8.93;2.30;;;;;;;;;;5052220;28;20678;-68
2021/03/13 07:16:18;;;;;;;9.73;2.37;;;;;;;;;;5049515;28;20213;-67
2021/03/13 07:18:44;;;;;;;12.53;1.87;;;;;;;;;;5047162;28;20203;-68
2021/03/13 07:21:10;;;;;;;8.27;2.63;;;;;;;;;;5048785;28;20589;-68
2021/03/13 07:23:35;;;;;;;12.33;2.57;;;;;;;;;;5047506;28;20239;-68
2021/03/13 07:26:01;;;;;;;13.57;2.73;;;;;;;;;;5050838;28;20170;-67
2021/03/13 07:28:26;;;;;;;12.70;2.13;;;;;;;;;;5045975;28;20269;-67
2021/03/13 07:30:52;;;;;;;10.00;2.93;;;;;;;;;;5051054;28;20308;-67
2021/03/13 07:33:18;;;;;;;10.27;2.67;;;;;;;;;;5046158;28;20226;-67
2021/03/13 07:35:53;;;;;;;7.40;1.97;;;;;;;;;;5052296;28;20231;-67
2021/03/13 07:38:20;;;;;;;10.37;2.43;;;;;;;;;;5051937;28;20268;-67
2021/03/13 07:40:46;;;;;;;18.10;3.23;;;;;;;;;;5051881;28;20583;-67
2021/03/13 07:43:13;;;;;;;10.50;2.60;;;;;;;;;;5047455;28;20205;-67
2021/03/13 07:45:38;;;;;;;12.23;2.87;;;;;;;;;;5059932;28;20173;-67
2021/03/13 07:48:04;;;;;;;11.27;2.30;;;;;;;;;;5051126;28;20258;-66
2021/03/13 07:50:29;;;;;;;7.60;2.50;;;;;;;;;;5051166;28;20257;-67
2021/03/13 07:52:55;;;;;;;12.63;2.60;;;;;;;;;;5051899;28;20185;-68
2021/03/13 07:55:21;;;;;;;9.37;2.37;;;;;;;;;;5050388;28;21161;-67
2021/03/13 07:57:48;;;;;;;9.67;2.97;;;;;;;;;;5050592;28;20185;-67
2021/03/13 08:00:14;;;;;;;13.77;3.10;;;;;;;;;;5051729;28;20206;-67
2021/03/13 08:02:40;;;;;;;15.80;3.43;;;;;;;;;;5051814;28;21006;-67
2021/03/13 08:05:07;;;;;;;14.90;3.23;;;;;;;;;;5044850;28;20252;-66
2021/03/13 08:07:51;;;;;;;15.47;3.27;;;;;;;;;;5052347;28;20674;-67
2021/03/13 08:10:39;;;;;;;11.30;3.43;;;;;;;;;;5040991;28;20229;-68
2021/03/13 08:13:04;;;;;;;12.10;2.60;;;;;;;;;;5042065;28;20189;-65
2021/03/13 08:15:29;;;;;;;7.60;1.97;;;;;;;;;;5051888;28;20598;-66
2021/03/13 08:17:55;;;;;;;8.97;2.30;;;;;;;;;;5049883;28;20174;-65
2021/03/13 08:20:28;;;;;;;10.77;2.57;;;;;;;;;;5052154;28;20216;-68
2021/03/13 08:23:11;;;;;;;6.87;2.80;;;;;;;;;;5052021;28;20252;-67
2021/03/13 08:26:03;;;;;;;11.40;2.03;;;;;;;;;;5047577;28;20607;-67
2021/03/13 08:31:36;;;;;;;11.17;2.73;;;;;;;;;;5051833;28;20546;-67
2021/03/13 08:34:04;;;;;;;12.57;2.70;;;;;;;;;;5049095;28;20335;-67
2021/03/13 08:36:30;;;;;;;13.43;3.93;;;;;;;;;;5049182;28;20240;-66
2021/03/13 08:39:04;;;;;;;9.47;3.43;;;;;;;;;;5050810;28;20229;-67
2021/03/13 08:41:44;;;;;;;9.23;3.70;;;;;;;;;;5051835;28;20205;-67
2021/03/13 08:44:17;;;;;;;13.53;3.27;;;;;;;;;;5049854;28;20295;-68
2021/03/13 08:46:52;;;;;;;11.37;2.93;;;;;;;;;;5048502;28;20527;-67
2021/03/13 08:49:24;;;;;;;27.27;4.83;;;;;;;;;;5052283;28;20209;-67
2021/03/13 08:52:09;;;;;;;20.47;3.83;;;;;;;;;;5051760;28;20185;-67
2021/03/13 08:54:40;;;;;;;20.20;4.83;;;;;;;;;;5049581;28;20192;-67
2021/03/13 08:57:05;;;;;;;9.07;2.83;;;;;;;;;;5052716;28;20174;-67
2021/03/13 08:59:32;;;;;;;14.73;4.40;;;;;;;;;;5051785;28;20358;-66
2021/03/13 09:02:00;;;;;;;19.53;4.00;;;;;;;;;;5047604;28;20178;-67
2021/03/13 09:04:25;;;;;;;18.87;4.07;;;;;;;;;;5047424;28;20265;-67
2021/03/13 09:06:51;;;;;;;29.03;5.80;;;;;;;;;;5051614;28;20326;-67
2021/03/13 09:09:16;;;;;;;15.23;4.57;;;;;;;;;;5053311;28;20216;-66
2021/03/13 09:11:54;;;;;;;23.70;4.67;;;;;;;;;;5052138;28;20177;-67
2021/03/13 09:14:19;;;;;;;25.23;4.30;;;;;;;;;;5053975;28;20188;-67
2021/03/13 09:16:44;;;;;;;25.67;5.70;;;;;;;;;;5051288;28;20173;-66
2021/03/13 09:19:13;;;;;;;18.10;4.83;;;;;;;;;;5054119;28;20206;-66
2021/03/13 09:21:57;;;;;;;35.53;5.10;;;;;;;;;;5051657;28;20205;-65
2021/03/13 09:24:23;;;;;;;17.47;5.30;;;;;;;;;;5052400;28;20665;-65
2021/03/13 09:26:52;;;;;;;21.43;5.60;;;;;;;;;;5051804;28;20273;-67
2021/03/13 09:29:27;;;;;;;18.23;5.57;;;;;;;;;;5051465;28;20225;-67
2021/03/13 09:32:00;;;;;;;18.33;4.17;;;;;;;;;;5051542;28;20258;-67
2021/03/13 09:34:25;;;;;;;20.77;4.73;;;;;;;;;;5047263;28;20182;-67
2021/03/13 09:36:51;;;;;;;12.87;4.10;;;;;;;;;;5046863;28;20664;-67
2021/03/13 09:39:20;;;;;;;19.53;4.70;;;;;;;;;;5049044;28;20299;-67
2021/03/13 09:42:04;;;;;;;22.67;4.13;;;;;;;;;;5048495;28;20232;-67
2021/03/13 09:44:37;;;;;;;12.93;3.60;;;;;;;;;;5048217;28;20631;-67
2021/03/13 09:47:12;;;;;;;19.47;4.83;;;;;;;;;;5048379;28;20223;-66
2021/03/13 09:49:38;;;;;;;27.57;5.97;;;;;;;;;;5045166;28;20705;-67
2021/03/13 09:52:03;;;;;;;11.47;3.73;;;;;;;;;;5051376;28;20177;-67
2021/03/13 09:54:28;;;;;;;20.97;4.57;;;;;;;;;;5050796;28;20253;-67
2021/03/13 09:56:54;;;;;;;14.60;4.53;;;;;;;;;;5047811;28;20185;-67
2021/03/13 09:59:19;;;;;;;12.63;3.80;;;;;;;;;;5049226;28;20270;-67
2021/03/13 10:01:44;;;;;;;13.10;3.07;;;;;;;;;;5051354;28;20205;-68
2021/03/13 10:04:10;;;;;;;13.27;3.03;;;;;;;;;;5048543;28;20182;-67
2021/03/13 10:06:35;;;;;;;14.00;3.10;;;;;;;;;;5049200;28;20625;-67
2021/03/13 10:09:00;;;;;;;9.90;2.50;;;;;;;;;;5052405;28;20232;-67
2021/03/13 10:11:39;;;;;;;13.53;3.13;;;;;;;;;;5053301;28;20187;-66
2021/03/13 10:14:04;;;;;;;11.20;2.90;;;;;;;;;;5046022;28;20251;-65
2021/03/13 10:16:30;;;;;;;11.17;2.77;;;;;;;;;;5057160;28;20601;-67
2021/03/13 10:18:56;;;;;;;15.70;3.63;;;;;;;;;;5051076;28;20186;-67
2021/03/13 10:21:21;;;;;;;12.67;3.47;;;;;;;;;;5052316;28;20270;-67
2021/03/13 10:23:46;;;;;;;8.80;2.97;;;;;;;;;;5052283;28;20174;-65
2021/03/13 10:26:13;;;;;;;10.93;2.67;;;;;;;;;;5052647;28;20393;-67
2021/03/13 10:28:40;;;;;;;13.47;3.13;;;;;;;;;;5051255;28;20170;-67
2021/03/13 10:31:10;;;;;;;14.30;3.30;;;;;;;;;;5050285;28;20180;-66
2021/03/13 10:33:44;;;;;;;14.30;2.73;;;;;;;;;;5035220;28;20568;-67
2021/03/13 10:36:10;;;;;;;12.30;3.07;;;;;;;;;;5052007;28;20268;-68
2021/03/13 10:38:42;;;;;;;23.83;3.27;;;;;;;;;;5050675;28;20256;-66
2021/03/13 10:41:09;;;;;;;10.83;3.40;;;;;;;;;;5051230;28;20198;-66
2021/03/13 10:43:38;;;;;;;14.47;3.50;;;;;;;;;;5047290;28;20669;-66
2021/03/13 10:46:03;;;;;;;15.57;2.97;;;;;;;;;;5050938;28;20196;-66
2021/03/13 10:48:32;;;;;;;7.87;2.73;;;;;;;;;;5045286;28;20185;-66
2021/03/13 10:50:57;;;;;;;10.13;3.30;;;;;;;;;;5047506;28;20274;-66
2021/03/13 10:53:36;;;;;;;8.93;2.07;;;;;;;;;;5047564;28;21146;-67
2021/03/13 10:56:03;;;;;;;14.93;3.47;;;;;;;;;;5046883;28;20233;-67
2021/03/13 10:58:30;;;;;;;8.57;1.97;;;;;;;;;;5047860;28;20186;-67
2021/03/13 11:00:56;;;;;;;7.93;2.17;;;;;;;;;;5046866;28;20208;-67
2021/03/13 11:03:21;;;;;;;7.97;2.73;;;;;;;;;;5048469;28;20785;-67
2021/03/13 11:05:47;;;;;;;15.97;4.70;;;;;;;;;;5046502;28;20211;-68
2021/03/13 11:08:12;;;;;;;13.07;2.97;;;;;;;;;;5046050;28;20174;-67
2021/03/13 11:10:38;;;;;;;13.07;3.17;;;;;;;;;;5048061;28;20197;-67
2021/03/13 11:13:04;;;;;;;13.27;3.83;;;;;;;;;;5042578;28;20204;-67
2021/03/13 11:15:29;;;;;;;17.33;3.27;;;;;;;;;;5051088;28;20179;-67
2021/03/13 11:17:54;;;;;;;10.60;2.67;;;;;;;;;;5052061;28;20173;-67
2021/03/13 11:20:19;;;;;;;14.87;2.23;;;;;;;;;;5051988;28;20710;-68
2021/03/13 11:22:44;;;;;;;6.67;1.70;;;;;;;;;;5050195;28;20251;-67
2021/03/13 11:25:10;;;;;;;10.03;2.80;;;;;;;;;;5050503;28;20173;-68
2021/03/13 11:27:35;;;;;;;8.83;2.00;;;;;;;;;;5048786;28;20661;-67
2021/03/13 11:30:00;;;;;;;7.50;2.13;;;;;;;;;;5050627;28;20612;-68
2021/03/13 11:32:26;;;;;;;12.70;2.77;;;;;;;;;;5049286;28;20283;-68
2021/03/13 11:34:51;;;;;;;9.57;2.10;;;;;;;;;;5047047;28;20804;-68
2021/03/13 11:37:16;;;;;;;5.70;1.40;;;;;;;;;;5049254;28;20169;-67
2021/03/13 11:39:41;;;;;;;6.00;1.73;;;;;;;;;;5045359;28;20198;-66
2021/03/13 11:42:07;;;;;;;9.63;1.80;;;;;;;;;;5048099;28;20174;-66
2021/03/13 11:44:32;;;;;;;12.00;3.27;;;;;;;;;;5047321;28;20173;-66
2021/03/13 11:46:58;;;;;;;10.30;2.00;;;;;;;;;;5044819;28;20174;-66
2021/03/13 11:49:23;;;;;;;9.47;2.40;;;;;;;;;;5046439;28;20208;-66
2021/03/13 11:51:48;;;;;;;8.17;1.40;;;;;;;;;;5048449;28;20670;-67
2021/03/13 11:54:14;;;;;;;8.57;2.43;;;;;;;;;;5050453;28;20177;-67
2021/03/13 11:56:39;;;;;;;8.93;1.30;;;;;;;;;;5046795;28;20675;-67
2021/03/13 11:59:04;;;;;;;6.67;1.40;;;;;;;;;;5039253;28;20214;-67
2021/03/13 12:01:29;;;;;;;5.87;1.43;;;;;;;;;;5047542;28;20210;-67
2021/03/13 12:03:55;;;;;;;6.77;2.17;;;;;;;;;;5049047;28;20789;-67
2021/03/13 12:06:20;;;;;;;7.53;2.47;;;;;;;;;;5041172;28;20578;-67
2021/03/13 12:08:45;;;;;;;5.27;1.73;;;;;;;;;;5044681;28;20181;-68
2021/03/13 12:11:10;;;;;;;10.60;1.73;;;;;;;;;;5046230;28;20193;-66
2021/03/13 12:13:35;;;;;;;6.73;1.60;;;;;;;;;;5047390;28;20182;-67
2021/03/13 12:16:01;;;;;;;5.33;1.60;;;;;;;;;;5048734;28;20181;-67
2021/03/13 12:18:26;;;;;;;8.53;2.13;;;;;;;;;;5050871;28;20281;-68
2021/03/13 12:20:51;;;;;;;3.37;1.40;;;;;;;;;;5050335;28;20690;-67
2021/03/13 12:23:17;;;;;;;3.13;0.97;;;;;;;;;;5053189;28;20190;-66
2021/03/13 12:25:42;;;;;;;2.73;0.70;;;;;;;;;;5051161;28;20177;-67
2021/03/13 12:28:07;;;;;;;0.60;0.40;;;;;;;;;;5050018;28;20177;-66
2021/03/13 12:30:33;;;;;;;4.03;0.53;;;;;;;;;;5053510;28;20269;-67
2021/03/13 12:32:58;;;;;;;5.53;1.13;;;;;;;;;;5050431;28;20728;-66
2021/03/13 12:35:24;;;;;;;2.33;0.90;;;;;;;;;;5052434;28;20192;-67
2021/03/13 12:37:49;;;;;;;4.77;0.97;;;;;;;;;;5050158;28;20268;-67
2021/03/13 12:40:14;;;;;;;8.40;1.33;;;;;;;;;;5054309;28;20589;-67
2021/03/13 12:42:40;;;;;;;3.97;1.57;;;;;;;;;;5052208;28;20208;-68
2021/03/13 12:45:06;;;;;;;5.53;1.53;;;;;;;;;;5050624;28;20173;-67
2021/03/13 12:47:31;;;;;;;9.80;1.80;;;;;;;;;;5050879;28;20189;-66
2021/03/13 12:49:56;;;;;;;8.03;2.73;;;;;;;;;;5052805;28;20206;-67
2021/03/13 12:52:22;;;;;;;7.63;2.07;;;;;;;;;;5046121;28;20178;-67
2021/03/13 12:54:48;;;;;;;6.07;1.33;;;;;;;;;;5049094;28;20228;-68
2021/03/13 12:57:13;;;;;;;15.03;3.33;;;;;;;;;;5051107;28;20178;-67
2021/03/13 12:59:38;;;;;;;3.70;1.37;;;;;;;;;;5048639;28;20277;-66
2021/03/13 13:02:04;;;;;;;6.73;1.37;;;;;;;;;;5048840;28;20219;-67
2021/03/13 13:04:30;;;;;;;4.33;1.37;;;;;;;;;;5046959;28;20642;-66
2021/03/13 13:06:55;;;;;;;3.03;1.20;;;;;;;;;;5051227;28;20165;-67
2021/03/13 13:09:20;;;;;;;9.27;2.07;;;;;;;;;;5051807;28;20194;-66
2021/03/13 13:11:46;;;;;;;6.83;1.73;;;;;;;;;;5049792;28;20281;-66
2021/03/13 13:14:12;;;;;;;9.40;1.90;;;;;;;;;;5048718;28;20244;-65
2021/03/13 13:16:37;;;;;;;12.50;1.77;;;;;;;;;;5048965;28;20190;-66
2021/03/13 13:19:02;;;;;;;8.10;2.00;;;;;;;;;;5048846;28;20212;-67
2021/03/13 13:21:28;;;;;;;8.57;3.03;;;;;;;;;;5052788;28;20204;-65
2021/03/13 13:23:54;;;;;;;4.77;1.63;;;;;;;;;;5053845;28;20388;-66
2021/03/13 13:26:19;;;;;;;6.87;1.60;;;;;;;;;;5051121;28;20955;-66
2021/03/13 13:28:45;;;;;;;5.60;1.20;;;;;;;;;;5052205;28;20177;-67
2021/03/13 13:31:10;;;;;;;8.40;2.57;;;;;;;;;;5045323;28;20577;-67
2021/03/13 13:33:35;;;;;;;6.23;1.40;;;;;;;;;;5046228;28;20177;-67
2021/03/13 13:36:01;;;;;;;7.07;1.67;;;;;;;;;;5052198;28;20193;-65
2021/03/13 13:38:26;;;;;;;4.47;1.87;;;;;;;;;;5049097;28;20182;-67
2021/03/13 13:40:52;;;;;;;4.63;1.30;;;;;;;;;;5052486;28;20221;-66
2021/03/13 13:43:18;;;;;;;7.70;1.43;;;;;;;;;;5048762;28;20265;-65
2021/03/13 13:45:44;;;;;;;7.30;1.90;;;;;;;;;;5052051;28;20198;-67
2021/03/13 13:48:09;;;;;;;5.03;1.50;;;;;;;;;;5052477;28;20321;-66
2021/03/13 13:50:35;;;;;;;3.43;1.53;;;;;;;;;;5054888;28;20201;-67
2021/03/13 13:53:00;;;;;;;4.43;1.70;;;;;;;;;;5050379;28;20308;-67
2021/03/13 13:55:26;;;;;;;3.13;1.10;;;;;;;;;;5049955;28;20186;-68
2021/03/13 13:57:51;;;;;;;10.57;1.63;;;;;;;;;;5050725;28;20296;-67
2021/03/13 14:00:20;;;;;;;8.07;2.20;;;;;;;;;;5048995;28;20206;-66
2021/03/13 14:02:49;;;;;;;7.43;1.67;;;;;;;;;;5049953;28;20307;-67
2021/03/13 14:05:15;;;;;;;7.93;1.70;;;;;;;;;;5048762;28;20181;-66
2021/03/13 14:07:40;;;;;;;4.70;1.33;;;;;;;;;;5046468;28;20207;-66
2021/03/13 14:10:06;;;;;;;3.67;1.57;;;;;;;;;;5038122;28;20624;-66
2021/03/13 14:12:32;;;;;;;3.87;1.40;;;;;;;;;;5048937;28;20186;-68
2021/03/13 14:14:57;;;;;;;5.23;1.50;;;;;;;;;;5045898;28;20174;-68
2021/03/13 14:17:22;;;;;;;3.23;0.93;;;;;;;;;;5043575;28;20662;-67
2021/03/13 14:19:48;;;;;;;0.90;0.70;;;;;;;;;;5049016;28;20225;-67
2021/03/13 14:22:13;;;;;;;1.23;0.50;;;;;;;;;;5050299;28;20182;-67
2021/03/13 14:24:38;;;;;;;2.07;0.77;;;;;;;;;;5047916;28;20232;-66
2021/03/13 14:27:03;;;;;;;1.37;0.50;;;;;;;;;;5049627;28;20217;-67
2021/03/13 14:29:32;;;;;;;2.20;0.93;;;;;;;;;;5045832;28;20205;-67
2021/03/13 14:31:57;;;;;;;1.83;0.70;;;;;;;;;;5046819;28;20670;-67
2021/03/13 14:34:22;;;;;;;6.37;0.80;;;;;;;;;;5045953;28;20219;-66
2021/03/13 14:36:48;;;;;;;11.13;1.33;;;;;;;;;;5050097;28;20208;-67
2021/03/13 14:39:14;;;;;;;6.57;1.40;;;;;;;;;;5046568;28;20259;-66
2021/03/13 14:41:40;;;;;;;11.43;1.37;;;;;;;;;;5044231;28;20213;-67